sensor_id;sensor_type;location;lat;lon;timestamp;temperature;humidity
75685;HTU21D;64298;46.050;38.164;2023-04-03T00:01:19;9.89;58.21
75685;HTU21D;64298;46.050;38.164;2023-04-03T00:03:45;9.84;58.32
75685;HTU21D;64298;46.050;38.164;2023-04-03T00:06:29;9.82;58.41
75685;HTU21D;64298;46.050;38.164;2023-04-03T00:08:55;9.80;58.58
75685;HTU21D;64298;46.050;38.164;2023-04-03T00:11:31;9.75;58.64
75685;HTU21D;64298;46.050;38.164;2023-04-03T00:14:17;9.72;58.67
75685;HTU21D;64298;46.050;38.164;2023-04-03T00:16:43;9.69;58.82
75685;HTU21D;64298;46.050;38.164;2023-04-03T00:19:16;9.65;58.93
75685;HTU21D;64298;46.050;38.164;2023-04-03T00:21:42;9.63;58.95
75685;HTU21D;64298;46.050;38.164;2023-04-03T00:24:08;9.62;59.06
75685;HTU21D;64298;46.050;38.164;2023-04-03T00:26:34;9.59;59.16
75685;HTU21D;64298;46.050;38.164;2023-04-03T00:29:05;9.55;59.22
75685;HTU21D;64298;46.050;38.164;2023-04-03T00:31:32;9.54;59.34
75685;HTU21D;64298;46.050;38.164;2023-04-03T00:34:00;9.53;59.38
75685;HTU21D;64298;46.050;38.164;2023-04-03T00:36:26;9.52;59.47
75685;HTU21D;64298;46.050;38.164;2023-04-03T00:38:52;9.52;59.56
75685;HTU21D;64298;46.050;38.164;2023-04-03T00:41:39;9.51;59.70
75685;HTU21D;64298;46.050;38.164;2023-04-03T00:47:06;9.48;59.99
75685;HTU21D;64298;46.050;38.164;2023-04-03T00:49:32;9.46;60.10
75685;HTU21D;64298;46.050;38.164;2023-04-03T00:51:59;9.46;60.28
75685;HTU21D;64298;46.050;38.164;2023-04-03T00:54:27;9.47;60.32
75685;HTU21D;64298;46.050;38.164;2023-04-03T00:56:55;9.46;60.53
75685;HTU21D;64298;46.050;38.164;2023-04-03T00:59:25;9.48;60.49
75685;HTU21D;64298;46.050;38.164;2023-04-03T01:01:53;9.50;60.49
75685;HTU21D;64298;46.050;38.164;2023-04-03T01:04:39;9.52;60.78
75685;HTU21D;64298;46.050;38.164;2023-04-03T01:07:09;9.52;60.67
75685;HTU21D;64298;46.050;38.164;2023-04-03T01:09:37;9.53;60.86
75685;HTU21D;64298;46.050;38.164;2023-04-03T01:12:25;9.54;60.93
75685;HTU21D;64298;46.050;38.164;2023-04-03T01:14:56;9.55;60.84
75685;HTU21D;64298;46.050;38.164;2023-04-03T01:17:35;9.55;61.04
75685;HTU21D;64298;46.050;38.164;2023-04-03T01:25:20;9.61;61.21
75685;HTU21D;64298;46.050;38.164;2023-04-03T01:27:53;9.61;61.75
75685;HTU21D;64298;46.050;38.164;2023-04-03T01:30:28;9.64;61.69
75685;HTU21D;64298;46.050;38.164;2023-04-03T01:32:57;9.66;61.72
75685;HTU21D;64298;46.050;38.164;2023-04-03T01:35:26;9.68;61.87
75685;HTU21D;64298;46.050;38.164;2023-04-03T01:37:55;9.70;62.07
75685;HTU21D;64298;46.050;38.164;2023-04-03T01:40:26;9.75;62.45
75685;HTU21D;64298;46.050;38.164;2023-04-03T01:42:52;9.72;62.57
75685;HTU21D;64298;46.050;38.164;2023-04-03T01:45:21;9.72;62.73
75685;HTU21D;64298;46.050;38.164;2023-04-03T01:47:54;9.75;62.98
75685;HTU21D;64298;46.050;38.164;2023-04-03T01:50:20;9.81;62.98
75685;HTU21D;64298;46.050;38.164;2023-04-03T01:52:49;9.83;63.16
75685;HTU21D;64298;46.050;38.164;2023-04-03T01:55:15;9.86;63.21
75685;HTU21D;64298;46.050;38.164;2023-04-03T01:57:44;9.89;63.92
75685;HTU21D;64298;46.050;38.164;2023-04-03T02:00:13;9.91;64.15
75685;HTU21D;64298;46.050;38.164;2023-04-03T02:02:42;9.92;64.35
75685;HTU21D;64298;46.050;38.164;2023-04-03T02:05:10;9.93;64.56
75685;HTU21D;64298;46.050;38.164;2023-04-03T02:07:36;9.94;64.56
75685;HTU21D;64298;46.050;38.164;2023-04-03T02:10:05;9.96;64.55
75685;HTU21D;64298;46.050;38.164;2023-04-03T02:12:31;9.99;64.47
75685;HTU21D;64298;46.050;38.164;2023-04-03T02:14:57;10.00;64.54
75685;HTU21D;64298;46.050;38.164;2023-04-03T02:17:23;10.03;64.71
75685;HTU21D;64298;46.050;38.164;2023-04-03T02:19:49;10.05;64.76
75685;HTU21D;64298;46.050;38.164;2023-04-03T02:22:16;10.05;64.91
75685;HTU21D;64298;46.050;38.164;2023-04-03T02:24:45;10.07;65.14
75685;HTU21D;64298;46.050;38.164;2023-04-03T02:27:12;10.07;65.34
75685;HTU21D;64298;46.050;38.164;2023-04-03T02:29:37;10.09;65.43
75685;HTU21D;64298;46.050;38.164;2023-04-03T02:32:04;10.09;65.72
75685;HTU21D;64298;46.050;38.164;2023-04-03T02:34:34;10.10;65.62
75685;HTU21D;64298;46.050;38.164;2023-04-03T02:37:04;10.10;65.84
75685;HTU21D;64298;46.050;38.164;2023-04-03T02:39:31;10.12;65.85
75685;HTU21D;64298;46.050;38.164;2023-04-03T02:41:58;10.14;65.93
75685;HTU21D;64298;46.050;38.164;2023-04-03T02:44:30;10.13;66.22
75685;HTU21D;64298;46.050;38.164;2023-04-03T02:47:02;10.14;66.34
75685;HTU21D;64298;46.050;38.164;2023-04-03T02:49:28;10.13;66.59
75685;HTU21D;64298;46.050;38.164;2023-04-03T02:51:55;10.15;66.73
75685;HTU21D;64298;46.050;38.164;2023-04-03T02:54:21;10.14;66.88
75685;HTU21D;64298;46.050;38.164;2023-04-03T02:56:52;10.16;67.01
75685;HTU21D;64298;46.050;38.164;2023-04-03T02:59:24;10.16;67.18
75685;HTU21D;64298;46.050;38.164;2023-04-03T03:01:50;10.16;67.46
75685;HTU21D;64298;46.050;38.164;2023-04-03T03:04:16;10.18;67.80
75685;HTU21D;64298;46.050;38.164;2023-04-03T03:06:42;10.18;67.88
75685;HTU21D;64298;46.050;38.164;2023-04-03T03:09:13;10.20;68.11
75685;HTU21D;64298;46.050;38.164;2023-04-03T03:11:44;10.21;68.46
75685;HTU21D;64298;46.050;38.164;2023-04-03T03:14:12;10.20;68.51
75685;HTU21D;64298;46.050;38.164;2023-04-03T03:16:40;10.23;68.71
75685;HTU21D;64298;46.050;38.164;2023-04-03T03:19:06;10.19;68.65
75685;HTU21D;64298;46.050;38.164;2023-04-03T03:21:35;10.15;69.04
75685;HTU21D;64298;46.050;38.164;2023-04-03T03:24:01;10.13;69.13
75685;HTU21D;64298;46.050;38.164;2023-04-03T03:26:27;10.14;69.33
75685;HTU21D;64298;46.050;38.164;2023-04-03T03:28:56;10.14;69.36
75685;HTU21D;64298;46.050;38.164;2023-04-03T03:31:22;10.14;69.71
75685;HTU21D;64298;46.050;38.164;2023-04-03T03:34:09;10.15;69.80
75685;HTU21D;64298;46.050;38.164;2023-04-03T03:36:35;10.15;69.83
75685;HTU21D;64298;46.050;38.164;2023-04-03T03:39:01;10.15;70.13
75685;HTU21D;64298;46.050;38.164;2023-04-03T03:41:28;10.18;70.09
75685;HTU21D;64298;46.050;38.164;2023-04-03T03:43:57;10.18;70.25
75685;HTU21D;64298;46.050;38.164;2023-04-03T03:46:25;10.19;70.50
75685;HTU21D;64298;46.050;38.164;2023-04-03T03:48:55;10.21;70.55
75685;HTU21D;64298;46.050;38.164;2023-04-03T03:51:26;10.20;70.90
75685;HTU21D;64298;46.050;38.164;2023-04-03T03:53:56;10.22;71.01
75685;HTU21D;64298;46.050;38.164;2023-04-03T03:56:25;10.22;71.13
75685;HTU21D;64298;46.050;38.164;2023-04-03T03:58:56;10.22;71.29
75685;HTU21D;64298;46.050;38.164;2023-04-03T04:01:28;10.22;71.24
75685;HTU21D;64298;46.050;38.164;2023-04-03T04:03:58;10.23;71.31
75685;HTU21D;64298;46.050;38.164;2023-04-03T04:06:30;10.25;71.57
75685;HTU21D;64298;46.050;38.164;2023-04-03T04:09:02;10.25;71.74
75685;HTU21D;64298;46.050;38.164;2023-04-03T04:11:37;10.24;71.90
75685;HTU21D;64298;46.050;38.164;2023-04-03T04:14:06;10.23;72.00
75685;HTU21D;64298;46.050;38.164;2023-04-03T04:16:33;10.23;72.22
75685;HTU21D;64298;46.050;38.164;2023-04-03T04:19:04;10.22;72.29
75685;HTU21D;64298;46.050;38.164;2023-04-03T04:21:31;10.21;72.59
75685;HTU21D;64298;46.050;38.164;2023-04-03T04:24:00;10.22;72.69
75685;HTU21D;64298;46.050;38.164;2023-04-03T04:26:32;10.21;72.83
75685;HTU21D;64298;46.050;38.164;2023-04-03T04:28:58;10.21;73.03
75685;HTU21D;64298;46.050;38.164;2023-04-03T04:31:24;10.20;73.25
75685;HTU21D;64298;46.050;38.164;2023-04-03T04:33:54;10.21;73.41
75685;HTU21D;64298;46.050;38.164;2023-04-03T04:36:20;10.20;73.48
75685;HTU21D;64298;46.050;38.164;2023-04-03T04:39:07;10.22;73.43
75685;HTU21D;64298;46.050;38.164;2023-04-03T04:41:36;10.24;73.69
75685;HTU21D;64298;46.050;38.164;2023-04-03T04:44:04;10.28;73.77
75685;HTU21D;64298;46.050;38.164;2023-04-03T04:46:33;10.38;73.66
75685;HTU21D;64298;46.050;38.164;2023-04-03T04:49:04;10.51;73.68
75685;HTU21D;64298;46.050;38.164;2023-04-03T04:51:30;10.65;73.73
75685;HTU21D;64298;46.050;38.164;2023-04-03T04:54:05;10.81;73.62
75685;HTU21D;64298;46.050;38.164;2023-04-03T04:56:32;10.89;73.67
75685;HTU21D;64298;46.050;38.164;2023-04-03T04:58:59;10.97;74.05
75685;HTU21D;64298;46.050;38.164;2023-04-03T05:01:25;11.03;74.12
75685;HTU21D;64298;46.050;38.164;2023-04-03T05:04:02;11.13;74.13
75685;HTU21D;64298;46.050;38.164;2023-04-03T05:06:34;11.19;74.54
75685;HTU21D;64298;46.050;38.164;2023-04-03T05:09:06;11.27;74.51
75685;HTU21D;64298;46.050;38.164;2023-04-03T05:11:33;11.31;74.92
75685;HTU21D;64298;46.050;38.164;2023-04-03T05:13:59;11.34;75.08
75685;HTU21D;64298;46.050;38.164;2023-04-03T05:18:57;11.39;75.41
75685;HTU21D;64298;46.050;38.164;2023-04-03T05:21:23;11.41;75.56
75685;HTU21D;64298;46.050;38.164;2023-04-03T05:23:55;11.45;75.47
75685;HTU21D;64298;46.050;38.164;2023-04-03T05:26:21;11.55;75.42
75685;HTU21D;64298;46.050;38.164;2023-04-03T05:28:50;11.69;75.12
75685;HTU21D;64298;46.050;38.164;2023-04-03T05:31:20;11.85;74.97
75685;HTU21D;64298;46.050;38.164;2023-04-03T05:33:47;11.98;74.48
75685;HTU21D;64298;46.050;38.164;2023-04-03T05:36:20;12.14;74.22
75685;HTU21D;64298;46.050;38.164;2023-04-03T05:38:49;12.26;73.91
75685;HTU21D;64298;46.050;38.164;2023-04-03T05:41:40;12.41;73.77
75685;HTU21D;64298;46.050;38.164;2023-04-03T05:44:06;12.51;73.42
75685;HTU21D;64298;46.050;38.164;2023-04-03T05:46:35;12.63;73.23
75685;HTU21D;64298;46.050;38.164;2023-04-03T05:49:05;12.74;72.87
75685;HTU21D;64298;46.050;38.164;2023-04-03T05:51:35;12.87;72.73
75685;HTU21D;64298;46.050;38.164;2023-04-03T05:54:23;12.97;72.53
75685;HTU21D;64298;46.050;38.164;2023-04-03T05:56:53;13.04;72.22
75685;HTU21D;64298;46.050;38.164;2023-04-03T05:59:21;13.10;72.12
75685;HTU21D;64298;46.050;38.164;2023-04-03T06:01:52;13.19;71.98
75685;HTU21D;64298;46.050;38.164;2023-04-03T06:04:19;13.25;71.82
75685;HTU21D;64298;46.050;38.164;2023-04-03T06:06:48;13.36;71.67
75685;HTU21D;64298;46.050;38.164;2023-04-03T06:09:15;13.46;71.58
75685;HTU21D;64298;46.050;38.164;2023-04-03T06:11:43;13.54;71.57
75685;HTU21D;64298;46.050;38.164;2023-04-03T06:14:14;13.62;71.42
75685;HTU21D;64298;46.050;38.164;2023-04-03T06:16:45;13.74;71.18
75685;HTU21D;64298;46.050;38.164;2023-04-03T06:19:12;13.84;70.92
75685;HTU21D;64298;46.050;38.164;2023-04-03T06:21:48;13.98;70.54
75685;HTU21D;64298;46.050;38.164;2023-04-03T06:24:18;14.12;70.22
75685;HTU21D;64298;46.050;38.164;2023-04-03T06:26:49;14.23;69.90
75685;HTU21D;64298;46.050;38.164;2023-04-03T06:29:17;14.26;69.78
75685;HTU21D;64298;46.050;38.164;2023-04-03T06:31:46;14.33;69.68
75685;HTU21D;64298;46.050;38.164;2023-04-03T06:34:12;14.39;69.42
75685;HTU21D;64298;46.050;38.164;2023-04-03T06:36:39;14.50;69.42
75685;HTU21D;64298;46.050;38.164;2023-04-03T06:39:15;14.60;69.07
75685;HTU21D;64298;46.050;38.164;2023-04-03T06:41:44;14.78;68.70
75685;HTU21D;64298;46.050;38.164;2023-04-03T06:44:13;14.89;68.18
75685;HTU21D;64298;46.050;38.164;2023-04-03T06:46:44;15.01;67.67
75685;HTU21D;64298;46.050;38.164;2023-04-03T06:49:16;15.07;67.27
75685;HTU21D;64298;46.050;38.164;2023-04-03T06:51:42;15.22;67.00
75685;HTU21D;64298;46.050;38.164;2023-04-03T06:54:10;15.37;66.31
75685;HTU21D;64298;46.050;38.164;2023-04-03T06:56:39;15.47;66.04
75685;HTU21D;64298;46.050;38.164;2023-04-03T06:59:09;15.65;65.40
75685;HTU21D;64298;46.050;38.164;2023-04-03T07:01:38;15.69;65.32
75685;HTU21D;64298;46.050;38.164;2023-04-03T07:04:08;15.74;64.95
75685;HTU21D;64298;46.050;38.164;2023-04-03T07:06:39;15.85;64.79
75685;HTU21D;64298;46.050;38.164;2023-04-03T07:09:09;15.97;64.20
75685;HTU21D;64298;46.050;38.164;2023-04-03T07:11:43;16.02;64.05
75685;HTU21D;64298;46.050;38.164;2023-04-03T07:14:12;16.00;63.99
75685;HTU21D;64298;46.050;38.164;2023-04-03T07:16:38;15.93;64.23
75685;HTU21D;64298;46.050;38.164;2023-04-03T07:19:09;15.99;64.06
75685;HTU21D;64298;46.050;38.164;2023-04-03T07:21:38;16.05;63.96
75685;HTU21D;64298;46.050;38.164;2023-04-03T07:24:07;16.24;63.37
75685;HTU21D;64298;46.050;38.164;2023-04-03T07:26:33;16.36;62.95
75685;HTU21D;64298;46.050;38.164;2023-04-03T07:29:05;16.45;62.58
75685;HTU21D;64298;46.050;38.164;2023-04-03T07:31:33;16.43;62.34
75685;HTU21D;64298;46.050;38.164;2023-04-03T07:34:00;16.54;62.29
75685;HTU21D;64298;46.050;38.164;2023-04-03T07:36:28;16.61;61.99
75685;HTU21D;64298;46.050;38.164;2023-04-03T07:38:54;16.71;61.85
75685;HTU21D;64298;46.050;38.164;2023-04-03T07:41:24;16.84;61.29
75685;HTU21D;64298;46.050;38.164;2023-04-03T07:43:52;17.01;60.77
75685;HTU21D;64298;46.050;38.164;2023-04-03T07:46:24;17.09;60.35
75685;HTU21D;64298;46.050;38.164;2023-04-03T07:48:51;17.19;59.89
75685;HTU21D;64298;46.050;38.164;2023-04-03T07:51:17;17.20;59.83
75685;HTU21D;64298;46.050;38.164;2023-04-03T07:53:44;17.20;59.77
75685;HTU21D;64298;46.050;38.164;2023-04-03T07:56:13;17.24;59.59
75685;HTU21D;64298;46.050;38.164;2023-04-03T07:58:39;17.26;59.53
75685;HTU21D;64298;46.050;38.164;2023-04-03T08:01:09;17.38;59.32
75685;HTU21D;64298;46.050;38.164;2023-04-03T08:03:38;17.54;59.19
75685;HTU21D;64298;46.050;38.164;2023-04-03T08:06:10;17.70;58.80
75685;HTU21D;64298;46.050;38.164;2023-04-03T08:08:37;17.87;58.41
75685;HTU21D;64298;46.050;38.164;2023-04-03T08:11:03;17.91;58.21
75685;HTU21D;64298;46.050;38.164;2023-04-03T08:13:53;17.90;58.37
75685;HTU21D;64298;46.050;38.164;2023-04-03T08:16:20;17.94;57.70
75685;HTU21D;64298;46.050;38.164;2023-04-03T08:18:54;17.99;57.67
75685;HTU21D;64298;46.050;38.164;2023-04-03T08:21:21;18.07;57.64
75685;HTU21D;64298;46.050;38.164;2023-04-03T08:23:50;18.18;57.41
75685;HTU21D;64298;46.050;38.164;2023-04-03T08:26:19;18.21;57.03
75685;HTU21D;64298;46.050;38.164;2023-04-03T08:28:46;18.34;57.10
75685;HTU21D;64298;46.050;38.164;2023-04-03T08:31:19;18.39;56.77
75685;HTU21D;64298;46.050;38.164;2023-04-03T08:33:47;18.42;56.62
75685;HTU21D;64298;46.050;38.164;2023-04-03T08:36:22;18.39;56.91
75685;HTU21D;64298;46.050;38.164;2023-04-03T08:38:52;18.43;56.87
75685;HTU21D;64298;46.050;38.164;2023-04-03T08:41:36;18.46;56.56
75685;HTU21D;64298;46.050;38.164;2023-04-03T08:44:14;18.42;55.72
75685;HTU21D;64298;46.050;38.164;2023-04-03T08:49:36;18.61;55.84
75685;HTU21D;64298;46.050;38.164;2023-04-03T08:52:13;18.66;55.38
75685;HTU21D;64298;46.050;38.164;2023-04-03T08:55:04;18.51;56.08
75685;HTU21D;64298;46.050;38.164;2023-04-03T08:57:35;18.53;55.83
75685;HTU21D;64298;46.050;38.164;2023-04-03T09:02:46;18.24;56.03
75685;HTU21D;64298;46.050;38.164;2023-04-03T09:05:18;18.18;56.13
75685;HTU21D;64298;46.050;38.164;2023-04-03T09:08:22;18.05;56.50
75685;HTU21D;64298;46.050;38.164;2023-04-03T09:10:48;18.00;56.71
75685;HTU21D;64298;46.050;38.164;2023-04-03T09:13:27;18.00;56.95
75685;HTU21D;64298;46.050;38.164;2023-04-03T09:16:33;17.96;57.03
75685;HTU21D;64298;46.050;38.164;2023-04-03T09:19:28;17.92;56.65
75685;HTU21D;64298;46.050;38.164;2023-04-03T09:22:25;17.89;56.97
75685;HTU21D;64298;46.050;38.164;2023-04-03T09:28:11;17.74;56.90
75685;HTU21D;64298;46.050;38.164;2023-04-03T09:30:37;17.45;57.42
75685;HTU21D;64298;46.050;38.164;2023-04-03T09:33:03;17.22;58.29
75685;HTU21D;64298;46.050;38.164;2023-04-03T09:35:35;17.03;59.37
75685;HTU21D;64298;46.050;38.164;2023-04-03T09:41:04;16.74;60.16
75685;HTU21D;64298;46.050;38.164;2023-04-03T09:43:33;16.67;60.67
75685;HTU21D;64298;46.050;38.164;2023-04-03T09:49:08;16.47;61.49
75685;HTU21D;64298;46.050;38.164;2023-04-03T09:51:37;16.31;61.96
75685;HTU21D;64298;46.050;38.164;2023-04-03T09:54:30;16.24;62.39
75685;HTU21D;64298;46.050;38.164;2023-04-03T09:57:06;16.19;62.16
75685;HTU21D;64298;46.050;38.164;2023-04-03T09:59:33;16.30;61.86
75685;HTU21D;64298;46.050;38.164;2023-04-03T10:02:03;16.55;61.31
75685;HTU21D;64298;46.050;38.164;2023-04-03T10:04:43;16.82;60.50
75685;HTU21D;64298;46.050;38.164;2023-04-03T10:07:33;17.11;59.63
75685;HTU21D;64298;46.050;38.164;2023-04-03T10:10:17;17.30;59.28
75685;HTU21D;64298;46.050;38.164;2023-04-03T10:12:43;17.56;58.08
75685;HTU21D;64298;46.050;38.164;2023-04-03T10:15:17;17.53;58.42
75685;HTU21D;64298;46.050;38.164;2023-04-03T10:17:57;17.41;58.64
75685;HTU21D;64298;46.050;38.164;2023-04-03T10:20:39;17.30;58.68
75685;HTU21D;64298;46.050;38.164;2023-04-03T10:26:37;16.76;59.96
75685;HTU21D;64298;46.050;38.164;2023-04-03T10:38:15;16.47;61.37
75685;HTU21D;64298;46.050;38.164;2023-04-03T10:40:55;16.66;60.99
75685;HTU21D;64298;46.050;38.164;2023-04-03T10:51:47;17.13;59.39
75685;HTU21D;64298;46.050;38.164;2023-04-03T10:54:27;17.09;58.95
75685;HTU21D;64298;46.050;38.164;2023-04-03T10:57:03;16.90;59.49
75685;HTU21D;64298;46.050;38.164;2023-04-03T11:02:31;16.81;59.66
75685;HTU21D;64298;46.050;38.164;2023-04-03T11:05:04;16.87;59.32
75685;HTU21D;64298;46.050;38.164;2023-04-03T11:07:40;16.91;59.23
75685;HTU21D;64298;46.050;38.164;2023-04-03T11:10:17;16.85;59.34
75685;HTU21D;64298;46.050;38.164;2023-04-03T11:12:52;16.77;60.13
75685;HTU21D;64298;46.050;38.164;2023-04-03T11:15:24;16.73;60.73
75685;HTU21D;64298;46.050;38.164;2023-04-03T11:17:59;16.67;60.93
75685;HTU21D;64298;46.050;38.164;2023-04-03T11:20:33;16.70;60.59
75685;HTU21D;64298;46.050;38.164;2023-04-03T11:23:12;16.91;60.40
75685;HTU21D;64298;46.050;38.164;2023-04-03T11:25:45;17.26;59.51
75685;HTU21D;64298;46.050;38.164;2023-04-03T11:28:13;17.60;58.37
75685;HTU21D;64298;46.050;38.164;2023-04-03T11:36:45;18.10;56.42
75685;HTU21D;64298;46.050;38.164;2023-04-03T11:39:30;17.93;57.21
75685;HTU21D;64298;46.050;38.164;2023-04-03T11:44:50;17.97;57.52
75685;HTU21D;64298;46.050;38.164;2023-04-03T11:47:44;17.85;57.97
75685;HTU21D;64298;46.050;38.164;2023-04-03T11:50:51;17.95;57.42
75685;HTU21D;64298;46.050;38.164;2023-04-03T11:56:01;17.32;59.51
75685;HTU21D;64298;46.050;38.164;2023-04-03T11:58:36;17.34;59.74
75685;HTU21D;64298;46.050;38.164;2023-04-03T12:01:10;17.43;59.32
75685;HTU21D;64298;46.050;38.164;2023-04-03T12:08:50;17.50;59.20
75685;HTU21D;64298;46.050;38.164;2023-04-03T12:11:49;17.62;58.77
75685;HTU21D;64298;46.050;38.164;2023-04-03T12:14:16;17.50;58.87
75685;HTU21D;64298;46.050;38.164;2023-04-03T12:16:49;17.33;59.63
75685;HTU21D;64298;46.050;38.164;2023-04-03T12:48:32;16.98;60.70
75685;HTU21D;64298;46.050;38.164;2023-04-03T12:53:51;17.14;61.21
75685;HTU21D;64298;46.050;38.164;2023-04-03T12:56:31;17.60;60.03
75685;HTU21D;64298;46.050;38.164;2023-04-03T13:01:57;18.05;58.70
75685;HTU21D;64298;46.050;38.164;2023-04-03T13:04:24;18.24;58.32
75685;HTU21D;64298;46.050;38.164;2023-04-03T13:06:50;18.46;57.90
75685;HTU21D;64298;46.050;38.164;2023-04-03T13:09:25;18.80;57.32
75685;HTU21D;64298;46.050;38.164;2023-04-03T13:12:23;19.09;56.00
75685;HTU21D;64298;46.050;38.164;2023-04-03T13:14:57;18.83;56.08
75685;HTU21D;64298;46.050;38.164;2023-04-03T13:17:25;18.64;56.24
75685;HTU21D;64298;46.050;38.164;2023-04-03T13:19:53;18.39;56.90
75685;HTU21D;64298;46.050;38.164;2023-04-03T13:22:30;18.09;57.64
75685;HTU21D;64298;46.050;38.164;2023-04-03T13:25:02;17.84;58.41
75685;HTU21D;64298;46.050;38.164;2023-04-03T13:27:32;17.91;58.77
75685;HTU21D;64298;46.050;38.164;2023-04-03T13:30:04;18.25;57.96
75685;HTU21D;64298;46.050;38.164;2023-04-03T13:32:36;18.44;57.42
75685;HTU21D;64298;46.050;38.164;2023-04-03T13:35:02;18.44;57.03
75685;HTU21D;64298;46.050;38.164;2023-04-03T13:37:33;18.35;57.19
75685;HTU21D;64298;46.050;38.164;2023-04-03T13:40:19;18.35;57.28
75685;HTU21D;64298;46.050;38.164;2023-04-03T13:43:02;18.29;57.44
75685;HTU21D;64298;46.050;38.164;2023-04-03T13:45:35;18.18;57.65
75685;HTU21D;64298;46.050;38.164;2023-04-03T13:48:15;18.04;57.70
75685;HTU21D;64298;46.050;38.164;2023-04-03T13:53:24;17.69;58.51
75685;HTU21D;64298;46.050;38.164;2023-04-03T13:58:30;17.90;58.51
75685;HTU21D;64298;46.050;38.164;2023-04-03T14:01:37;18.47;57.88
75685;HTU21D;64298;46.050;38.164;2023-04-03T14:04:14;19.21;56.06
75685;HTU21D;64298;46.050;38.164;2023-04-03T14:06:41;19.53;54.85
75685;HTU21D;64298;46.050;38.164;2023-04-03T14:09:12;19.44;54.75
75685;HTU21D;64298;46.050;38.164;2023-04-03T14:11:38;19.14;55.16
75685;HTU21D;64298;46.050;38.164;2023-04-03T14:14:16;18.91;55.78
75685;HTU21D;64298;46.050;38.164;2023-04-03T14:16:49;19.06;55.59
75685;HTU21D;64298;46.050;38.164;2023-04-03T14:19:26;18.95;55.58
75685;HTU21D;64298;46.050;38.164;2023-04-03T14:21:54;18.80;56.03
75685;HTU21D;64298;46.050;38.164;2023-04-03T14:24:21;18.66;56.26
75685;HTU21D;64298;46.050;38.164;2023-04-03T14:26:52;18.56;56.44
75685;HTU21D;64298;46.050;38.164;2023-04-03T14:29:19;18.61;56.48
75685;HTU21D;64298;46.050;38.164;2023-04-03T14:31:49;18.84;55.90
75685;HTU21D;64298;46.050;38.164;2023-04-03T14:34:15;18.79;55.97
75685;HTU21D;64298;46.050;38.164;2023-04-03T14:36:45;18.42;56.39
75685;HTU21D;64298;46.050;38.164;2023-04-03T14:39:18;18.05;56.87
75685;HTU21D;64298;46.050;38.164;2023-04-03T14:41:45;17.85;57.22
75685;HTU21D;64298;46.050;38.164;2023-04-03T14:44:15;17.67;57.49
75685;HTU21D;64298;46.050;38.164;2023-04-03T14:46:44;17.47;58.05
75685;HTU21D;64298;46.050;38.164;2023-04-03T14:49:19;17.29;58.48
75685;HTU21D;64298;46.050;38.164;2023-04-03T14:51:48;17.05;59.08
75685;HTU21D;64298;46.050;38.164;2023-04-03T14:54:23;16.95;59.55
75685;HTU21D;64298;46.050;38.164;2023-04-03T14:56:56;16.88;59.78
75685;HTU21D;64298;46.050;38.164;2023-04-03T14:59:26;16.80;60.05
75685;HTU21D;64298;46.050;38.164;2023-04-03T15:01:56;16.76;60.15
75685;HTU21D;64298;46.050;38.164;2023-04-03T15:04:23;16.72;60.31
75685;HTU21D;64298;46.050;38.164;2023-04-03T15:06:54;16.60;60.54
75685;HTU21D;64298;46.050;38.164;2023-04-03T15:09:23;16.50;60.80
75685;HTU21D;64298;46.050;38.164;2023-04-03T15:11:51;16.46;61.05
75685;HTU21D;64298;46.050;38.164;2023-04-03T15:14:21;16.40;61.12
75685;HTU21D;64298;46.050;38.164;2023-04-03T15:16:47;16.37;61.15
75685;HTU21D;64298;46.050;38.164;2023-04-03T15:19:13;16.35;61.24
75685;HTU21D;64298;46.050;38.164;2023-04-03T15:21:40;16.28;61.37
75685;HTU21D;64298;46.050;38.164;2023-04-03T15:24:09;16.20;61.45
75685;HTU21D;64298;46.050;38.164;2023-04-03T15:26:38;16.16;61.51
75685;HTU21D;64298;46.050;38.164;2023-04-03T15:29:06;16.06;61.71
75685;HTU21D;64298;46.050;38.164;2023-04-03T15:31:34;16.04;61.83
75685;HTU21D;64298;46.050;38.164;2023-04-03T15:34:05;16.04;61.94
75685;HTU21D;64298;46.050;38.164;2023-04-03T15:36:36;16.01;62.03
75685;HTU21D;64298;46.050;38.164;2023-04-03T15:39:05;15.95;62.23
75685;HTU21D;64298;46.050;38.164;2023-04-03T15:41:33;15.89;62.46
75685;HTU21D;64298;46.050;38.164;2023-04-03T15:44:22;15.82;62.66
75685;HTU21D;64298;46.050;38.164;2023-04-03T15:46:49;15.78;62.92
75685;HTU21D;64298;46.050;38.164;2023-04-03T15:49:18;15.74;63.15
75685;HTU21D;64298;46.050;38.164;2023-04-03T15:51:47;15.68;63.42
75685;HTU21D;64298;46.050;38.164;2023-04-03T15:54:25;15.58;63.54
75685;HTU21D;64298;46.050;38.164;2023-04-03T15:57:09;15.39;63.94
75685;HTU21D;64298;46.050;38.164;2023-04-03T15:59:35;15.24;64.30
75685;HTU21D;64298;46.050;38.164;2023-04-03T16:02:03;15.11;64.69
75685;HTU21D;64298;46.050;38.164;2023-04-03T16:04:30;15.02;64.85
75685;HTU21D;64298;46.050;38.164;2023-04-03T16:07:04;14.93;65.07
75685;HTU21D;64298;46.050;38.164;2023-04-03T16:09:34;14.91;65.06
75685;HTU21D;64298;46.050;38.164;2023-04-03T16:12:03;14.92;65.12
75685;HTU21D;64298;46.050;38.164;2023-04-03T16:14:34;14.86;65.33
75685;HTU21D;64298;46.050;38.164;2023-04-03T16:17:03;14.84;65.34
75685;HTU21D;64298;46.050;38.164;2023-04-03T16:19:29;14.77;65.74
75685;HTU21D;64298;46.050;38.164;2023-04-03T16:21:58;14.63;66.09
75685;HTU21D;64298;46.050;38.164;2023-04-03T16:24:24;14.57;66.27
75685;HTU21D;64298;46.050;38.164;2023-04-03T16:26:55;14.49;66.78
75685;HTU21D;64298;46.050;38.164;2023-04-03T16:29:21;14.45;66.74
75685;HTU21D;64298;46.050;38.164;2023-04-03T16:31:47;14.45;66.75
75685;HTU21D;64298;46.050;38.164;2023-04-03T16:34:15;14.49;66.65
75685;HTU21D;64298;46.050;38.164;2023-04-03T16:36:41;14.51;66.46
75685;HTU21D;64298;46.050;38.164;2023-04-03T16:39:08;14.56;66.43
75685;HTU21D;64298;46.050;38.164;2023-04-03T16:41:38;14.55;66.43
75685;HTU21D;64298;46.050;38.164;2023-04-03T16:44:03;14.54;66.56
75685;HTU21D;64298;46.050;38.164;2023-04-03T16:46:34;14.51;66.65
75685;HTU21D;64298;46.050;38.164;2023-04-03T16:49:00;14.50;66.65
75685;HTU21D;64298;46.050;38.164;2023-04-03T16:51:26;14.47;66.74
75685;HTU21D;64298;46.050;38.164;2023-04-03T16:54:00;14.45;66.75
75685;HTU21D;64298;46.050;38.164;2023-04-03T16:56:32;14.44;66.72
75685;HTU21D;64298;46.050;38.164;2023-04-03T16:59:03;14.41;66.76
75685;HTU21D;64298;46.050;38.164;2023-04-03T17:01:33;14.38;66.78
75685;HTU21D;64298;46.050;38.164;2023-04-03T17:03:58;14.36;66.97
75685;HTU21D;64298;46.050;38.164;2023-04-03T17:06:24;14.32;67.09
75685;HTU21D;64298;46.050;38.164;2023-04-03T17:08:56;14.28;67.29
75685;HTU21D;64298;46.050;38.164;2023-04-03T17:11:28;14.26;67.57
75685;HTU21D;64298;46.050;38.164;2023-04-03T17:13:55;14.24;67.67